createdAt,value
2023-04-02T00:01:07.103Z,87.03
2023-04-02T00:06:40.305Z,87.64
2023-04-02T00:11:46.625Z,88.11
2023-04-02T00:16:50.610Z,87.34
2023-04-02T00:21:57.817Z,87.23
2023-04-02T00:27:01.777Z,86.98
2023-04-02T00:32:06.405Z,86.08
2023-04-02T00:37:23.794Z,85.68
2023-04-02T00:42:29.357Z,86.34
2023-04-02T00:47:36.809Z,86.42
2023-04-02T00:52:43.346Z,86.83
2023-04-02T00:57:47.918Z,87.50
2023-04-02T01:03:30.392Z,87.34
2023-04-02T01:08:50.289Z,87.30
2023-04-02T01:14:00.165Z,88.28
2023-04-02T01:19:15.231Z,88.39
2023-04-02T01:24:21.644Z,88.03
2023-04-02T01:29:30.714Z,87.95
2023-04-02T01:34:35.096Z,87.71
2023-04-02T01:40:01.516Z,87.66
2023-04-02T01:45:12.383Z,88.13
2023-04-02T01:50:27.020Z,88.05
2023-04-02T01:55:40.718Z,87.60
2023-04-02T02:00:51.083Z,88.47
2023-04-02T02:05:55.927Z,88.05
2023-04-02T02:11:00.876Z,88.81
2023-04-02T02:16:06.484Z,88.61
2023-04-02T02:21:12.030Z,88.09
2023-04-02T02:26:16.818Z,88.61
2023-04-02T02:31:28.001Z,88.29
2023-04-02T02:36:40.227Z,88.34
2023-04-02T02:41:48.636Z,87.97
2023-04-02T02:46:58.437Z,88.18
2023-04-02T02:52:14.195Z,88.63
2023-04-02T02:57:29.116Z,88.53
2023-04-02T03:02:38.620Z,88.08
2023-04-02T03:07:45.176Z,87.67
2023-04-02T03:12:54.246Z,87.44
2023-04-02T03:18:03.464Z,87.24
2023-04-02T03:23:19.308Z,87.36
2023-04-02T03:28:29.368Z,86.54
2023-04-02T03:33:39.749Z,86.32
2023-04-02T03:38:48.632Z,85.98
2023-04-02T03:43:57.721Z,86.03
2023-04-02T03:49:09.068Z,86.70
2023-04-02T03:54:17.226Z,86.89
2023-04-02T03:59:28.312Z,86.96
2023-04-02T04:04:36.077Z,86.69
2023-04-02T04:09:43.020Z,86.31
2023-04-02T04:14:54.203Z,86.45
2023-04-02T04:20:08.675Z,86.08
2023-04-02T04:25:23.581Z,86.86
2023-04-02T04:30:36.431Z,86.83
2023-04-02T04:35:48.402Z,86.32
2023-04-02T04:40:57.073Z,86.54
2023-04-02T04:46:07.510Z,86.55
2023-04-02T04:51:21.098Z,86.37
2023-04-02T04:56:28.067Z,85.97
2023-04-02T05:01:46.529Z,85.76
2023-04-02T05:06:56.509Z,85.76
2023-04-02T05:12:12.080Z,84.46
2023-04-02T05:17:20.862Z,84.98
2023-04-02T05:22:34.553Z,84.73
2023-04-02T05:27:46.622Z,85.14
2023-04-02T05:32:57.626Z,85.05
2023-04-02T05:38:07.074Z,85.01
2023-04-02T05:43:16.502Z,84.40
2023-04-02T05:48:26.728Z,84.65
2023-04-02T05:53:36.192Z,85.09
2023-04-02T05:58:46.329Z,85.04
2023-04-02T06:04:12.933Z,84.96
2023-04-02T06:09:25.507Z,84.89
2023-04-02T06:14:29.374Z,83.99
2023-04-02T06:19:37.473Z,84.89
2023-04-02T06:24:43.057Z,84.87
2023-04-02T06:29:51.928Z,84.74
2023-04-02T06:34:56.560Z,84.92
2023-04-02T06:40:02.253Z,85.68
2023-04-02T06:45:08.123Z,85.59
2023-04-02T06:50:44.516Z,85.59
2023-04-02T06:55:53.938Z,84.91
2023-04-02T07:01:02.191Z,85.73
2023-04-02T07:06:19.287Z,85.05
2023-04-02T07:11:26.320Z,85.70
2023-04-02T07:16:36.808Z,84.91
2023-04-02T07:21:40.537Z,84.52
2023-04-02T07:26:47.707Z,84.71
2023-04-02T07:31:52.991Z,84.84
2023-04-02T07:36:56.571Z,85.66
2023-04-02T07:42:03.197Z,84.75
2023-04-02T07:47:07.491Z,85.24
2023-04-02T07:52:11.486Z,85.55
2023-04-02T07:57:16.576Z,85.50
2023-04-02T08:02:21.555Z,85.61
2023-04-02T08:07:24.952Z,85.80
2023-04-02T08:12:29.995Z,85.28
2023-04-02T08:17:33.798Z,84.88
2023-04-02T08:22:37.295Z,85.21
2023-04-02T08:27:42.101Z,85.08
2023-04-02T08:32:45.823Z,85.54
2023-04-02T08:37:49.527Z,83.37
2023-04-02T08:43:14.579Z,83.63
2023-04-02T08:48:18.279Z,84.28
2023-04-02T08:53:24.498Z,83.49
2023-04-02T08:58:41.627Z,84.33
2023-04-02T09:03:48.522Z,82.42
2023-04-02T09:08:54.317Z,82.72
2023-04-02T09:14:01.889Z,82.62
2023-04-02T09:19:17.216Z,83.73
2023-04-02T09:24:20.830Z,83.87
2023-04-02T09:29:41.194Z,83.97
2023-04-02T09:34:44.577Z,83.46
2023-04-02T09:39:48.154Z,83.54
2023-04-02T09:44:53.249Z,83.09
2023-04-02T09:49:56.675Z,82.36
2023-04-02T09:55:21.967Z,82.05
2023-04-02T10:00:41.526Z,82.91
2023-04-02T10:05:46.592Z,85.00
2023-04-02T10:10:55.156Z,86.21
2023-04-02T10:16:04.820Z,87.91
2023-04-02T10:21:11.821Z,88.93
2023-04-02T10:26:31.203Z,90.30
2023-04-02T10:31:55.443Z,92.79
2023-04-02T10:37:15.902Z,93.78
2023-04-02T10:42:28.143Z,93.99
2023-04-02T10:47:46.343Z,94.05
2023-04-02T10:53:02.882Z,92.24
2023-04-02T10:59:23.771Z,89.59
2023-04-02T11:04:44.059Z,86.00
2023-04-02T11:09:52.569Z,85.56
2023-04-02T11:15:13.953Z,83.77
2023-04-02T11:21:01.061Z,83.19
2023-04-02T11:26:48.145Z,83.50
2023-04-02T11:32:20.171Z,82.78
2023-04-02T11:37:37.897Z,83.66
2023-04-02T11:42:45.689Z,83.89
2023-04-02T11:48:25.604Z,83.57
2023-04-02T11:53:35.220Z,82.45
2023-04-02T11:58:57.950Z,81.64
2023-04-02T12:04:29.656Z,82.42
2023-04-02T12:09:49.138Z,83.52
2023-04-02T12:15:05.390Z,82.50
2023-04-02T12:20:25.117Z,82.18
2023-04-02T12:25:34.876Z,80.56
2023-04-02T12:30:41.125Z,80.55
2023-04-02T12:35:50.130Z,80.39
2023-04-02T12:41:00.813Z,81.12
2023-04-02T12:46:11.875Z,81.02
2023-04-02T12:51:17.693Z,79.77
2023-04-02T12:56:27.546Z,78.98
2023-04-02T13:01:35.600Z,78.79
2023-04-02T13:06:44.757Z,78.76
2023-04-02T13:11:52.836Z,79.89
2023-04-02T13:16:59.734Z,78.32
2023-04-02T13:22:26.981Z,79.57
2023-04-02T13:27:34.752Z,79.28
2023-04-02T13:32:43.050Z,77.95
2023-04-02T13:37:48.035Z,75.66
2023-04-02T13:42:55.008Z,73.60
2023-04-02T13:48:01.886Z,71.50
2023-04-02T13:53:10.532Z,70.85
2023-04-02T13:58:19.631Z,68.75
2023-04-02T14:03:25.770Z,69.90
2023-04-02T14:08:40.639Z,68.69
2023-04-02T14:14:07.939Z,69.33
2023-04-02T14:19:28.731Z,68.30
2023-04-02T14:24:45.532Z,69.05
2023-04-02T14:30:03.912Z,70.68
2023-04-02T14:35:18.294Z,70.63
2023-04-02T14:40:27.934Z,68.31
2023-04-02T14:45:49.960Z,69.73
2023-04-02T14:51:02.776Z,71.37
2023-04-02T14:56:10.803Z,73.55
2023-04-02T15:01:38.418Z,73.74
2023-04-02T15:07:09.029Z,72.83
2023-04-02T15:12:23.836Z,73.05
2023-04-02T15:17:35.334Z,72.87
2023-04-02T15:22:49.692Z,73.65
2023-04-02T15:28:16.067Z,74.37
2023-04-02T15:33:54.034Z,74.52
2023-04-02T15:39:15.596Z,71.27
2023-04-02T15:44:22.362Z,72.24
2023-04-02T15:49:45.283Z,72.21
2023-04-02T15:55:14.892Z,72.84
2023-04-02T16:00:28.579Z,73.85
2023-04-02T16:05:43.095Z,74.70
2023-04-02T16:10:51.624Z,75.03
2023-04-02T16:16:04.051Z,75.55
2023-04-02T16:21:09.287Z,76.01
2023-04-02T16:26:33.816Z,77.09
2023-04-02T16:31:51.269Z,78.03
2023-04-02T16:37:03.166Z,78.36
2023-04-02T16:42:21.366Z,78.87
2023-04-02T16:47:57.196Z,79.50
2023-04-02T17:00:27.691Z,80.29
2023-04-02T17:11:53.277Z,81.49
2023-04-02T17:17:06.665Z,82.15
2023-04-02T17:22:15.904Z,81.99
2023-04-02T17:27:27.688Z,83.12
2023-04-02T17:32:34.587Z,82.91
2023-04-02T17:37:45.941Z,82.95
2023-04-02T17:42:56.726Z,82.48
2023-04-02T17:48:06.076Z,82.30
2023-04-02T17:53:20.632Z,82.63
2023-04-02T17:58:56.600Z,82.71
2023-04-02T18:04:13.714Z,81.91
2023-04-02T18:09:38.235Z,82.73
2023-04-02T18:15:03.037Z,83.73
2023-04-02T18:20:21.982Z,84.01
2023-04-02T18:25:45.898Z,84.42
2023-04-02T18:30:57.341Z,84.27
2023-04-02T18:36:07.383Z,83.63
2023-04-02T18:41:30.327Z,84.02
2023-04-02T18:46:40.905Z,84.28
2023-04-02T18:51:46.097Z,84.21
2023-04-02T18:56:49.574Z,83.81
2023-04-02T19:01:56.171Z,84.75
2023-04-02T19:07:08.767Z,85.38
2023-04-02T19:12:17.060Z,85.78
2023-04-02T19:17:28.079Z,85.67
2023-04-02T19:22:46.226Z,85.24
2023-04-02T19:28:03.573Z,85.31
2023-04-02T19:33:15.970Z,85.38
2023-04-02T19:38:47.968Z,85.25
2023-04-02T19:43:51.922Z,84.81
2023-04-02T19:49:04.234Z,84.38
2023-04-02T19:54:09.093Z,84.27
2023-04-02T19:59:18.226Z,84.35
2023-04-02T20:04:22.560Z,83.97
2023-04-02T20:09:27.461Z,84.79
2023-04-02T20:14:31.028Z,85.25
2023-04-02T20:19:34.756Z,85.27
2023-04-02T20:24:41.074Z,84.87
2023-04-02T20:29:44.520Z,84.95
2023-04-02T20:34:48.299Z,85.11
2023-04-02T20:39:53.282Z,84.94
2023-04-02T20:44:56.970Z,84.50
2023-04-02T20:50:00.686Z,84.41
2023-04-02T20:55:06.475Z,85.06
2023-04-02T21:00:12.269Z,85.22
2023-04-02T21:05:15.860Z,85.74
2023-04-02T21:10:21.338Z,85.40
2023-04-02T21:15:24.795Z,84.56
2023-04-02T21:20:28.197Z,85.57
2023-04-02T21:25:33.281Z,86.08
2023-04-02T21:30:36.683Z,85.25
2023-04-02T21:35:40.156Z,85.35
2023-04-02T21:40:45.047Z,85.58
2023-04-02T21:45:48.380Z,85.15
2023-04-02T21:50:51.722Z,85.49
2023-04-02T21:56:03.501Z,84.62
2023-04-02T22:01:11.533Z,85.34
2023-04-02T22:06:25.525Z,85.81
2023-04-02T22:11:32.953Z,84.84
2023-04-02T22:16:37.010Z,84.86
2023-04-02T22:21:41.562Z,85.67
2023-04-02T22:26:47.067Z,85.44
2023-04-02T22:31:50.468Z,85.78
2023-04-02T22:36:54.245Z,85.52
2023-04-02T22:41:59.088Z,85.33
2023-04-02T22:47:02.480Z,85.24
2023-04-02T22:52:06.209Z,84.87
2023-04-02T22:57:11.579Z,85.65
2023-04-02T23:02:15.093Z,85.17
2023-04-02T23:07:18.732Z,84.59
2023-04-02T23:12:23.592Z,84.93
2023-04-02T23:17:27.307Z,85.14
2023-04-02T23:22:30.761Z,83.34
2023-04-02T23:27:35.956Z,84.35
2023-04-02T23:32:39.382Z,85.94
2023-04-02T23:37:43.314Z,86.21
2023-04-02T23:42:48.464Z,85.68
2023-04-02T23:47:51.862Z,85.49
2023-04-02T23:52:55.253Z,84.80
2023-04-02T23:58:00.000Z,85.29
